Time;durP1;ratioP1;P1;durP2;ratioP2;P2;SDS_P1;SDS_P2;PMS_P1;PMS_P2;Temp;Humidity;BMP_temperature;BMP_pressure;BME280_temperature;BME280_humidity;BME280_pressure;Samples;Min_cycle;Max_cycle;Signal;HPM_P1;HPM_P2
2023/07/25 00:00:48;;;;;;;;;;;;;;;;;;5096634;28;20022;-92
2023/07/25 00:03:14;;;;;;;;;;;;;;;;;;5096918;28;19923;-92
2023/07/25 00:05:40;;;;;;;;;;;;;;;;;;5097228;28;19926;-92
2023/07/25 00:08:06;;;;;;;;;;;;;;;;;;5096910;28;19989;-92
2023/07/25 00:10:32;;;;;;;;;;;;;;;;;;5114026;28;20375;-92
2023/07/25 00:12:58;;;;;;;;;;;;;;;;;;5096031;28;19926;-92
2023/07/25 00:15:24;;;;;;;;;;;;;;;;;;5096310;28;19919;-91
2023/07/25 00:17:50;;;;;;;;;;;;;;;;;;5096085;28;19919;-92
2023/07/25 00:20:16;;;;;;;;;;;;;;;;;;5113036;28;19935;-93
2023/07/25 00:22:42;;;;;;;;;;;;;;;;;;5096120;28;19919;-92
2023/07/25 00:25:08;;;;;;;;;;;;;;;;;;5113011;28;20133;-93
2023/07/25 00:27:34;;;;;;;;;;;;;;;;;;5112517;28;19924;-93
2023/07/25 00:30:01;;;;;;;;;;;;;;;;;;5096174;28;19928;-92
2023/07/25 00:32:27;;;;;;;;;;;;;;;;;;5113144;28;19927;-92
2023/07/25 00:34:53;;;;;;;;;;;;;;;;;;5095954;28;19920;-92
2023/07/25 00:37:19;;;;;;;;;;;;;;;;;;5095493;28;19920;-92
2023/07/25 00:39:45;;;;;;;;;;;;;;;;;;5112567;28;19924;-92
2023/07/25 00:42:11;;;;;;;;;;;;;;;;;;5095570;28;20268;-92
2023/07/25 00:44:37;;;;;;;;;;;;;;;;;;5095387;28;20374;-92
2023/07/25 00:47:03;;;;;;;;;;;;;;;;;;5095326;28;19919;-93
2023/07/25 00:49:29;;;;;;;;;;;;;;;;;;5095534;28;19923;-93
2023/07/25 00:51:55;;;;;;;;;;;;;;;;;;5095717;28;19935;-92
2023/07/25 00:54:21;;;;;;;;;;;;;;;;;;5095692;28;19919;-93
2023/07/25 00:56:47;;;;;;;;;;;;;;;;;;5112623;28;20318;-93
2023/07/25 00:59:13;;;;;;;;;;;;;;;;;;5095754;28;19946;-93
2023/07/25 01:01:39;;;;;;;;;;;;;;;;;;5112346;28;19920;-93
2023/07/25 01:04:05;;;;;;;;;;;;;;;;;;5095459;28;19927;-93
2023/07/25 01:06:31;;;;;;;;;;;;;;;;;;5095419;28;20281;-92
2023/07/25 01:08:57;;;;;;;;;;;;;;;;;;5095398;28;19919;-93
2023/07/25 01:11:22;;;;;;;;;;;;;;;;;;5112277;28;19924;-93
2023/07/25 01:13:48;;;;;;;;;;;;;;;;;;5095255;28;20335;-92
2023/07/25 01:16:14;;;;;;;;;;;;;;;;;;5095269;28;19923;-92
2023/07/25 01:18:40;;;;;;;;;;;;;;;;;;5112511;28;19923;-92
2023/07/25 01:21:06;;;;;;;;;;;;;;;;;;5095245;28;19920;-92
2023/07/25 01:23:32;;;;;;;;;;;;;;;;;;5112557;28;19920;-92
2023/07/25 01:25:58;;;;;;;;;;;;;;;;;;5094849;28;19949;-92
2023/07/25 01:28:24;;;;;;;;;;;;;;;;;;5095609;28;20287;-91
2023/07/25 01:30:50;;;;;;;;;;;;;;;;;;5112148;28;19924;-92
2023/07/25 01:33:16;;;;;;;;;;;;;;;;;;5095568;28;19920;-93
2023/07/25 01:35:42;;;;;;;;;;;;;;;;;;5095487;28;20432;-93
2023/07/25 01:38:08;;;;;;;;;;;;;;;;;;5095671;28;20416;-93
2023/07/25 01:40:34;;;;;;;;;;;;;;;;;;5099386;28;19924;-93
2023/07/25 01:43:00;;;;;;;;;;;;;;;;;;5116406;28;19920;-93
2023/07/25 01:45:26;;;;;;;;;;;;;;;;;;5116387;28;20397;-92
2023/07/25 01:47:52;;;;;;;;;;;;;;;;;;5116313;28;20440;-92
2023/07/25 01:50:18;;;;;;;;;;;;;;;;;;5115983;28;19919;-92
2023/07/25 01:52:44;;;;;;;;;;;;;;;;;;5098911;28;20035;-92
2023/07/25 01:55:10;;;;;;;;;;;;;;;;;;5115649;28;19993;-92
2023/07/25 01:57:36;;;;;;;;;;;;;;;;;;5098925;28;19919;-93
2023/07/25 02:00:02;;;;;;;;;;;;;;;;;;5099168;28;20361;-92
2023/07/25 02:02:28;;;;;;;;;;;;;;;;;;5098766;28;20004;-92
2023/07/25 02:04:54;;;;;;;;;;;;;;;;;;5098089;28;19923;-91
2023/07/25 02:07:20;;;;;;;;;;;;;;;;;;5098471;28;19920;-92
2023/07/25 02:09:46;;;;;;;;;;;;;;;;;;5098257;28;19942;-92
2023/07/25 02:12:12;;;;;;;;;;;;;;;;;;5116001;28;20378;-93
2023/07/25 02:14:37;;;;;;;;;;;;;;;;;;5115939;28;19986;-93
2023/07/25 02:17:03;;;;;;;;;;;;;;;;;;5099008;28;20421;-93
2023/07/25 02:19:29;;;;;;;;;;;;;;;;;;5098497;28;19977;-93
2023/07/25 02:21:55;;;;;;;;;;;;;;;;;;5115728;28;20194;-92
2023/07/25 02:24:21;;;;;;;;;;;;;;;;;;5098339;28;20279;-92
2023/07/25 02:26:47;;;;;;;;;;;;;;;;;;5115670;28;19919;-92
2023/07/25 02:29:13;;;;;;;;;;;;;;;;;;5115383;28;19930;-92
2023/07/25 02:31:39;;;;;;;;;;;;;;;;;;5115622;28;20015;-94
2023/07/25 02:34:05;;;;;;;;;;;;;;;;;;5098509;28;19983;-94
2023/07/25 02:36:31;;;;;;;;;;;;;;;;;;5098464;28;19994;-94
2023/07/25 02:38:57;;;;;;;;;;;;;;;;;;5115043;28;19924;-93
2023/07/25 02:41:23;;;;;;;;;;;;;;;;;;5098264;28;19923;-93
2023/07/25 02:43:49;;;;;;;;;;;;;;;;;;5098219;28;19986;-93
2023/07/25 02:46:15;;;;;;;;;;;;;;;;;;5098246;28;19979;-93
2023/07/25 02:48:41;;;;;;;;;;;;;;;;;;5098204;28;19996;-94
2023/07/25 02:51:07;;;;;;;;;;;;;;;;;;5097989;28;19931;-95
2023/07/25 02:53:33;;;;;;;;;;;;;;;;;;5097477;28;20019;-93
2023/07/25 02:55:59;;;;;;;;;;;;;;;;;;5097648;28;19924;-94
2023/07/25 02:58:25;;;;;;;;;;;;;;;;;;5098006;28;19924;-95
2023/07/25 03:00:50;;;;;;;;;;;;;;;;;;5098303;28;19920;-93
2023/07/25 03:03:16;;;;;;;;;;;;;;;;;;5098545;28;19920;-95
2023/07/25 03:05:42;;;;;;;;;;;;;;;;;;5098435;28;19920;-94
2023/07/25 03:08:08;;;;;;;;;;;;;;;;;;5097664;28;19920;-94
2023/07/25 03:10:34;;;;;;;;;;;;;;;;;;5098067;28;19939;-95
2023/07/25 03:13:00;;;;;;;;;;;;;;;;;;5114639;28;19968;-93
2023/07/25 03:15:26;;;;;;;;;;;;;;;;;;5097290;28;20042;-93
2023/07/25 03:17:52;;;;;;;;;;;;;;;;;;5097489;28;20287;-92
2023/07/25 03:20:18;;;;;;;;;;;;;;;;;;5097130;28;20287;-93
2023/07/25 03:22:44;;;;;;;;;;;;;;;;;;5097483;28;19986;-92
2023/07/25 03:25:10;;;;;;;;;;;;;;;;;;5114350;28;19920;-92
2023/07/25 03:27:36;;;;;;;;;;;;;;;;;;5114593;28;19919;-92
2023/07/25 03:30:02;;;;;;;;;;;;;;;;;;5097092;28;20351;-92
2023/07/25 03:32:28;;;;;;;;;;;;;;;;;;5097106;28;20472;-92
2023/07/25 03:34:54;;;;;;;;;;;;;;;;;;5114255;28;19919;-92
2023/07/25 03:37:19;;;;;;;;;;;;;;;;;;5096867;28;19961;-92
2023/07/25 03:39:45;;;;;;;;;;;;;;;;;;5097212;28;19969;-91
2023/07/25 03:42:11;;;;;;;;;;;;;;;;;;5097178;28;19972;-93
2023/07/25 03:44:37;;;;;;;;;;;;;;;;;;5096941;28;19919;-92
2023/07/25 03:47:03;;;;;;;;;;;;;;;;;;5113666;28;19955;-93
2023/07/25 03:49:29;;;;;;;;;;;;;;;;;;5097006;28;20355;-92
2023/07/25 03:51:55;;;;;;;;;;;;;;;;;;5096767;28;20319;-92
2023/07/25 03:54:25;;;;;;;;;;;;;;;;;;5114009;28;19924;-92
2023/07/25 03:56:51;;;;;;;;;;;;;;;;;;5113589;28;19924;-92
2023/07/25 03:59:17;;;;;;;;;;;;;;;;;;5096952;28;19924;-93
2023/07/25 04:01:43;;;;;;;;;;;;;;;;;;5096212;28;19920;-92
2023/07/25 04:04:09;;;;;;;;;;;;;;;;;;5113792;28;20095;-92
2023/07/25 04:06:35;;;;;;;;;;;;;;;;;;5113512;28;19923;-92
2023/07/25 04:09:00;;;;;;;;;;;;;;;;;;5115151;28;19920;-92
2023/07/25 04:11:26;;;;;;;;;;;;;;;;;;5115063;28;19959;-92
2023/07/25 04:13:52;;;;;;;;;;;;;;;;;;5096557;28;19920;-92
2023/07/25 04:16:18;;;;;;;;;;;;;;;;;;5096186;28;19927;-92
2023/07/25 04:18:44;;;;;;;;;;;;;;;;;;5112783;28;19931;-92
2023/07/25 04:21:10;;;;;;;;;;;;;;;;;;5114340;28;19923;-92
2023/07/25 04:23:36;;;;;;;;;;;;;;;;;;5096048;28;20289;-92
2023/07/25 04:26:02;;;;;;;;;;;;;;;;;;5114030;28;19920;-93
2023/07/25 04:28:28;;;;;;;;;;;;;;;;;;5096245;28;19920;-92
2023/07/25 04:30:54;;;;;;;;;;;;;;;;;;5096291;28;19923;-93
2023/07/25 04:33:20;;;;;;;;;;;;;;;;;;5096224;28;19920;-93
2023/07/25 04:35:47;;;;;;;;;;;;;;;;;;5096200;28;19919;-93
2023/07/25 04:38:13;;;;;;;;;;;;;;;;;;5113874;28;20264;-93
2023/07/25 04:40:39;;;;;;;;;;;;;;;;;;5096163;28;19926;-93
2023/07/25 04:43:05;;;;;;;;;;;;;;;;;;5097042;28;20279;-93
2023/07/25 04:45:31;;;;;;;;;;;;;;;;;;5097131;28;19920;-92
2023/07/25 04:47:57;;;;;;;;;;;;;;;;;;5100091;28;19919;-92
2023/07/25 04:50:23;;;;;;;;;;;;;;;;;;5100536;28;19919;-93
2023/07/25 04:52:49;;;;;;;;;;;;;;;;;;5116578;28;20006;-93
2023/07/25 04:55:15;;;;;;;;;;;;;;;;;;5115111;28;19936;-93
2023/07/25 04:57:41;;;;;;;;;;;;;;;;;;5114135;28;19924;-93
2023/07/25 05:00:07;;;;;;;;;;;;;;;;;;5114588;28;19934;-93
2023/07/25 05:02:33;;;;;;;;;;;;;;;;;;5114124;28;19980;-93
2023/07/25 05:04:59;;;;;;;;;;;;;;;;;;5096399;28;19967;-93
2023/07/25 05:07:25;;;;;;;;;;;;;;;;;;5098533;28;20004;-93
2023/07/25 05:09:50;;;;;;;;;;;;;;;;;;5114948;28;19919;-94
2023/07/25 05:12:16;;;;;;;;;;;;;;;;;;5096996;28;20269;-93
2023/07/25 05:14:42;;;;;;;;;;;;;;;;;;5114142;28;19920;-93
2023/07/25 05:17:11;;;;;;;;;;;;;;;;;;5113549;28;19923;-94
2023/07/25 05:19:40;;;;;;;;;;;;;;;;;;5112476;28;19924;-94
2023/07/25 05:22:06;;;;;;;;;;;;;;;;;;5095488;28;20564;-94
2023/07/25 05:24:32;;;;;;;;;;;;;;;;;;5095792;28;19955;-93
2023/07/25 05:26:58;;;;;;;;;;;;;;;;;;5095655;28;19920;-94
2023/07/25 05:29:24;;;;;;;;;;;;;;;;;;5095533;28;19975;-92
2023/07/25 05:31:50;;;;;;;;;;;;;;;;;;5111923;28;19929;-91
2023/07/25 05:34:15;;;;;;;;;;;;;;;;;;5095029;28;19973;-92
2023/07/25 05:36:41;;;;;;;;;;;;;;;;;;5113298;28;19920;-92
2023/07/25 05:39:07;;;;;;;;;;;;;;;;;;5094904;28;20444;-91
2023/07/25 05:41:33;;;;;;;;;;;;;;;;;;5095161;28;20251;-91
2023/07/25 05:43:59;;;;;;;;;;;;;;;;;;5095094;28;20015;-91
2023/07/25 05:46:25;;;;;;;;;;;;;;;;;;5112321;28;19919;-91
2023/07/25 05:48:51;;;;;;;;;;;;;;;;;;5095160;28;19919;-92
2023/07/25 05:51:17;;;;;;;;;;;;;;;;;;5095048;28;19926;-92
2023/07/25 05:53:43;;;;;;;;;;;;;;;;;;5094765;28;20006;-92
2023/07/25 05:56:09;;;;;;;;;;;;;;;;;;5111792;28;19923;-94
2023/07/25 05:58:35;;;;;;;;;;;;;;;;;;5112090;28;19934;-93
2023/07/25 06:01:01;;;;;;;;;;;;;;;;;;5095212;28;19920;-93
2023/07/25 06:03:26;;;;;;;;;;;;;;;;;;5112297;28;19927;-93
2023/07/25 06:05:52;;;;;;;;;;;;;;;;;;5095143;28;20378;-92
2023/07/25 06:08:18;;;;;;;;;;;;;;;;;;5095617;28;19926;-92
2023/07/25 06:10:45;;;;;;;;;;;;;;;;;;5095167;28;19923;-92
2023/07/25 06:13:11;;;;;;;;;;;;;;;;;;5111834;28;19926;-93
2023/07/25 06:15:36;;;;;;;;;;;;;;;;;;5111984;28;19919;-92
2023/07/25 06:18:04;;;;;;;;;;;;;;;;;;5111917;28;19926;-92
2023/07/25 06:20:31;;;;;;;;;;;;;;;;;;5094672;28;19973;-92
2023/07/25 06:22:57;;;;;;;;;;;;;;;;;;5094850;28;20011;-93
2023/07/25 06:25:23;;;;;;;;;;;;;;;;;;5114127;28;19977;-93
2023/07/25 06:27:49;;;;;;;;;;;;;;;;;;5098731;28;20056;-94
2023/07/25 06:30:15;;;;;;;;;;;;;;;;;;5115833;28;20019;-93
2023/07/25 06:32:41;;;;;;;;;;;;;;;;;;5099004;28;19920;-93
2023/07/25 06:35:07;;;;;;;;;;;;;;;;;;5098843;28;19924;-93
2023/07/25 06:37:33;;;;;;;;;;;;;;;;;;5098122;28;19920;-92
2023/07/25 06:40:02;;;;;;;;;;;;;;;;;;5114384;28;19924;-90
2023/07/25 06:42:28;;;;;;;;;;;;;;;;;;5114601;28;19973;-90
2023/07/25 06:44:54;;;;;;;;;;;;;;;;;;5097386;28;19930;-95
2023/07/25 06:47:20;;;;;;;;;;;;;;;;;;5098645;28;20325;-91
2023/07/25 06:49:46;;;;;;;;;;;;;;;;;;5097311;28;19920;-91
2023/07/25 06:52:12;;;;;;;;;;;;;;;;;;5097452;28;20257;-91
2023/07/25 06:54:38;;;;;;;;;;;;;;;;;;5115636;28;19919;-91
2023/07/25 06:57:04;;;;;;;;;;;;;;;;;;5096981;28;19936;-90
2023/07/25 06:59:30;;;;;;;;;;;;;;;;;;5097215;28;20014;-91
2023/07/25 07:01:56;;;;;;;;;;;;;;;;;;5097599;28;20278;-91
2023/07/25 07:04:21;;;;;;;;;;;;;;;;;;5097985;28;19919;-90
2023/07/25 07:06:47;;;;;;;;;;;;;;;;;;5097253;28;19927;-91
2023/07/25 07:09:13;;;;;;;;;;;;;;;;;;5096814;28;19927;-90
2023/07/25 07:11:39;;;;;;;;;;;;;;;;;;5113810;28;19936;-90
2023/07/25 07:14:05;;;;;;;;;;;;;;;;;;5114041;28;20019;-90
2023/07/25 07:16:31;;;;;;;;;;;;;;;;;;5097121;28;19920;-90
2023/07/25 07:18:57;;;;;;;;;;;;;;;;;;5115207;28;20390;-90
2023/07/25 07:21:23;;;;;;;;;;;;;;;;;;5115310;28;19966;-90
2023/07/25 07:23:49;;;;;;;;;;;;;;;;;;5096456;28;19939;-90
2023/07/25 07:26:15;;;;;;;;;;;;;;;;;;5113738;28;19924;-91
2023/07/25 07:28:41;;;;;;;;;;;;;;;;;;5096540;28;20041;-91
2023/07/25 07:31:09;;;;;;;;;;;;;;;;;;5114029;28;19931;-89
2023/07/25 07:33:35;;;;;;;;;;;;;;;;;;5096554;28;19931;-89
2023/07/25 07:36:01;;;;;;;;;;;;;;;;;;5113904;28;19920;-91
2023/07/25 07:38:27;;;;;;;;;;;;;;;;;;5096767;28;19919;-90
2023/07/25 07:40:53;;;;;;;;;;;;;;;;;;5113626;28;19920;-90
2023/07/25 07:43:19;;;;;;;;;;;;;;;;;;5096562;28;19920;-91
2023/07/25 07:45:45;;;;;;;;;;;;;;;;;;5096680;28;19924;-90
2023/07/25 07:48:10;;;;;;;;;;;;;;;;;;5113662;28;19924;-90
2023/07/25 07:50:36;;;;;;;;;;;;;;;;;;5113391;28;19919;-92
2023/07/25 07:53:03;;;;;;;;;;;;;;;;;;5096308;28;20010;-91
2023/07/25 07:55:29;;;;;;;;;;;;;;;;;;5095952;28;20011;-91
2023/07/25 07:57:55;;;;;;;;;;;;;;;;;;5114440;28;19959;-91
2023/07/25 08:00:21;;;;;;;;;;;;;;;;;;5096289;28;19931;-91
2023/07/25 08:02:47;;;;;;;;;;;;;;;;;;5113441;28;20055;-91
2023/07/25 08:05:13;;;;;;;;;;;;;;;;;;5096243;28;19920;-88
2023/07/25 08:07:38;;;;;;;;;;;;;;;;;;5114198;28;19920;-89
2023/07/25 08:10:04;;;;;;;;;;;;;;;;;;5095619;28;19945;-90
2023/07/25 08:12:30;;;;;;;;;;;;;;;;;;5114044;28;19920;-89
2023/07/25 08:14:56;;;;;;;;;;;;;;;;;;5114222;28;19985;-88
2023/07/25 08:17:22;;;;;;;;;;;;;;;;;;5096409;28;19971;-91
2023/07/25 08:19:48;;;;;;;;;;;;;;;;;;5095683;28;19928;-89
2023/07/25 08:22:14;;;;;;;;;;;;;;;;;;5113833;28;19947;-89
2023/07/25 08:24:40;;;;;;;;;;;;;;;;;;5112323;28;20010;-91
2023/07/25 08:27:06;;;;;;;;;;;;;;;;;;5114081;28;19923;-89
2023/07/25 08:29:32;;;;;;;;;;;;;;;;;;5095711;28;19920;-87
2023/07/25 08:31:58;;;;;;;;;;;;;;;;;;5095630;28;19919;-87
2023/07/25 08:34:24;;;;;;;;;;;;;;;;;;5112420;28;20011;-89
2023/07/25 08:36:50;;;;;;;;;;;;;;;;;;5113850;28;20304;-89
2023/07/25 08:39:19;;;;;;;;;;;;;;;;;;5112130;28;20291;-90
2023/07/25 08:41:45;;;;;;;;;;;;;;;;;;5095598;28;19919;-90
2023/07/25 08:44:11;;;;;;;;;;;;;;;;;;5112456;28;20367;-90
2023/07/25 08:46:36;;;;;;;;;;;;;;;;;;5112226;28;19919;-89
2023/07/25 08:49:02;;;;;;;;;;;;;;;;;;5111934;28;19927;-89
2023/07/25 08:51:28;;;;;;;;;;;;;;;;;;5095560;28;19968;-89
2023/07/25 08:53:54;;;;;;;;;;;;;;;;;;5112100;28;19931;-89
2023/07/25 08:56:20;;;;;;;;;;;;;;;;;;5111879;28;20006;-89
2023/07/25 08:58:46;;;;;;;;;;;;;;;;;;5111915;28;20429;-89
2023/07/25 09:01:12;;;;;;;;;;;;;;;;;;5111989;28;20003;-89
2023/07/25 09:03:38;;;;;;;;;;;;;;;;;;5095031;28;19927;-90
2023/07/25 09:06:04;;;;;;;;;;;;;;;;;;5113006;28;19928;-90
2023/07/25 09:08:30;;;;;;;;;;;;;;;;;;5113192;28;20290;-91
2023/07/25 09:10:56;;;;;;;;;;;;;;;;;;5112386;28;20383;-93
2023/07/25 09:13:22;;;;;;;;;;;;;;;;;;5095185;28;20282;-89
2023/07/25 09:15:48;;;;;;;;;;;;;;;;;;5111938;28;20329;-94
2023/07/25 09:18:14;;;;;;;;;;;;;;;;;;5095424;28;19967;-91
2023/07/25 09:20:40;;;;;;;;;;;;;;;;;;5112588;28;20027;-93
2023/07/25 09:23:06;;;;;;;;;;;;;;;;;;5095264;28;19919;-91
2023/07/25 09:25:33;;;;;;;;;;;;;;;;;;5111784;28;19927;-93
2023/07/25 09:27:59;;;;;;;;;;;;;;;;;;5111967;28;19920;-90
2023/07/25 09:30:25;;;;;;;;;;;;;;;;;;5113006;28;19920;-90
2023/07/25 09:32:51;;;;;;;;;;;;;;;;;;5111382;28;20011;-89
2023/07/25 09:35:17;;;;;;;;;;;;;;;;;;5111425;28;20334;-88
2023/07/25 09:37:43;;;;;;;;;;;;;;;;;;5111319;28;19920;-88
2023/07/25 09:40:10;;;;;;;;;;;;;;;;;;5112773;28;19936;-89
2023/07/25 09:42:36;;;;;;;;;;;;;;;;;;5111561;28;20414;-87
2023/07/25 09:45:02;;;;;;;;;;;;;;;;;;5111706;28;19998;-94
2023/07/25 09:47:28;;;;;;;;;;;;;;;;;;5096519;28;20286;-89
2023/07/25 09:49:54;;;;;;;;;;;;;;;;;;5094371;28;19919;-88
2023/07/25 09:52:20;;;;;;;;;;;;;;;;;;5112387;28;20303;-87
2023/07/25 09:54:46;;;;;;;;;;;;;;;;;;5113041;28;20509;-87
2023/07/25 09:57:11;;;;;;;;;;;;;;;;;;5110982;28;20333;-90
2023/07/25 09:59:37;;;;;;;;;;;;;;;;;;5117501;28;19930;-87
2023/07/25 10:02:06;;;;;;;;;;;;;;;;;;5117906;28;19920;-88
2023/07/25 10:04:32;;;;;;;;;;;;;;;;;;5118277;28;19919;-87
2023/07/25 10:06:58;;;;;;;;;;;;;;;;;;5116521;28;20310;-86
2023/07/25 10:09:24;;;;;;;;;;;;;;;;;;5098115;28;19930;-87
2023/07/25 10:11:50;;;;;;;;;;;;;;;;;;5115144;28;20435;-86
2023/07/25 10:14:16;;;;;;;;;;;;;;;;;;5115315;28;19923;-90
2023/07/25 10:16:42;;;;;;;;;;;;;;;;;;5098101;28;19971;-87
2023/07/25 10:19:08;;;;;;;;;;;;;;;;;;5114749;28;20268;-87
2023/07/25 10:21:34;;;;;;;;;;;;;;;;;;5115099;28;20591;-86
2023/07/25 10:24:00;;;;;;;;;;;;;;;;;;5115000;28;19973;-87
2023/07/25 10:26:27;;;;;;;;;;;;;;;;;;5098016;28;19920;-87
2023/07/25 10:28:53;;;;;;;;;;;;;;;;;;5098260;28;19919;-87
2023/07/25 10:31:19;;;;;;;;;;;;;;;;;;5115248;28;19968;-89
2023/07/25 10:33:45;;;;;;;;;;;;;;;;;;5116048;28;20014;-90
2023/07/25 10:36:11;;;;;;;;;;;;;;;;;;5097527;28;19995;-91
2023/07/25 10:38:39;;;;;;;;;;;;;;;;;;5097722;28;20108;-87
2023/07/25 10:41:05;;;;;;;;;;;;;;;;;;5100086;28;19920;-85
2023/07/25 10:43:31;;;;;;;;;;;;;;;;;;5095516;28;20389;-86
2023/07/25 10:45:57;;;;;;;;;;;;;;;;;;5084551;28;19919;-86
2023/07/25 10:48:23;;;;;;;;;;;;;;;;;;5097259;28;19919;-87
2023/07/25 10:50:53;;;;;;;;;;;;;;;;;;5114256;28;19920;-87
2023/07/25 10:53:24;;;;;;;;;;;;;;;;;;5114730;28;19926;-86
2023/07/25 10:55:50;;;;;;;;;;;;;;;;;;5097009;28;19923;-86
2023/07/25 10:58:16;;;;;;;;;;;;;;;;;;5099839;28;19946;-87
2023/07/25 11:00:42;;;;;;;;;;;;;;;;;;5093947;28;19925;-86
2023/07/25 11:03:07;;;;;;;;;;;;;;;;;;5103558;28;19957;-87
2023/07/25 11:05:33;;;;;;;;;;;;;;;;;;5095012;28;19920;-86
2023/07/25 11:07:59;;;;;;;;;;;;;;;;;;5094926;28;19920;-87
2023/07/25 11:10:25;;;;;;;;;;;;;;;;;;5123107;27;19927;-87
2023/07/25 11:12:52;;;;;;;;;;;;;;;;;;5101818;28;19977;-87
2023/07/25 11:15:18;;;;;;;;;;;;;;;;;;5115448;28;19928;-87
2023/07/25 11:17:44;;;;;;;;;;;;;;;;;;5115043;28;19920;-87
2023/07/25 11:20:11;;;;;;;;;;;;;;;;;;5113724;28;20069;-87
2023/07/25 11:22:37;;;;;;;;;;;;;;;;;;5105726;28;19920;-90
2023/07/25 11:25:03;;;;;;;;;;;;;;;;;;5077213;28;20284;-87
2023/07/25 11:27:28;;;;;;;;;;;;;;;;;;5093670;28;19932;-85
2023/07/25 11:29:54;;;;;;;;;;;;;;;;;;5094793;28;20415;-86
2023/07/25 11:32:20;;;;;;;;;;;;;;;;;;5094277;28;19920;-86
2023/07/25 11:34:46;;;;;;;;;;;;;;;;;;5093152;28;19928;-86
2023/07/25 11:37:12;;;;;;;;;;;;;;;;;;5094570;28;19920;-86
2023/07/25 11:39:38;;;;;;;;;;;;;;;;;;5076037;28;20260;-86
2023/07/25 11:42:04;;;;;;;;;;;;;;;;;;5094543;28;20656;-87
2023/07/25 11:44:31;;;;;;;;;;;;;;;;;;5094519;28;19927;-89
2023/07/25 11:46:57;;;;;;;;;;;;;;;;;;5075850;28;19924;-87
2023/07/25 11:49:23;;;;;;;;;;;;;;;;;;5093043;28;20378;-87
2023/07/25 11:51:49;;;;;;;;;;;;;;;;;;5093158;28;19934;-86
2023/07/25 11:54:15;;;;;;;;;;;;;;;;;;5093044;28;20371;-87
2023/07/25 11:56:41;;;;;;;;;;;;;;;;;;5093762;28;20060;-89
2023/07/25 11:59:07;;;;;;;;;;;;;;;;;;5083990;28;19935;-87
2023/07/25 12:01:33;;;;;;;;;;;;;;;;;;5096438;28;19924;-87
2023/07/25 12:04:02;;;;;;;;;;;;;;;;;;5092525;28;19920;-87
2023/07/25 12:06:28;;;;;;;;;;;;;;;;;;5092455;28;19962;-87
2023/07/25 12:08:55;;;;;;;;;;;;;;;;;;5092855;28;19924;-87
2023/07/25 12:11:21;;;;;;;;;;;;;;;;;;5126970;27;19943;-87
2023/07/25 12:13:46;;;;;;;;;;;;;;;;;;5093548;28;20264;-86
2023/07/25 12:16:12;;;;;;;;;;;;;;;;;;5092306;28;19924;-87
2023/07/25 12:18:38;;;;;;;;;;;;;;;;;;5116609;27;20292;-87
2023/07/25 12:21:04;;;;;;;;;;;;;;;;;;5116780;27;19928;-87
2023/07/25 12:23:30;;;;;;;;;;;;;;;;;;5091887;28;19920;-87
2023/07/25 12:25:56;;;;;;;;;;;;;;;;;;5092215;28;20159;-86
2023/07/25 12:28:22;;;;;;;;;;;;;;;;;;5104674;28;20449;-86
2023/07/25 12:30:48;;;;;;;;;;;;;;;;;;5091975;28;19920;-86
2023/07/25 12:33:14;;;;;;;;;;;;;;;;;;5093104;28;19965;-87
2023/07/25 12:35:40;;;;;;;;;;;;;;;;;;5092082;28;20283;-85
2023/07/25 12:38:06;;;;;;;;;;;;;;;;;;5091851;28;19931;-86
2023/07/25 12:40:32;;;;;;;;;;;;;;;;;;5108931;28;19924;-86
2023/07/25 12:42:58;;;;;;;;;;;;;;;;;;5108910;28;19920;-86
2023/07/25 12:45:24;;;;;;;;;;;;;;;;;;5091761;28;19947;-86
2023/07/25 12:47:50;;;;;;;;;;;;;;;;;;5092819;28;19927;-86
2023/07/25 12:50:16;;;;;;;;;;;;;;;;;;5091503;28;19920;-86
2023/07/25 12:52:42;;;;;;;;;;;;;;;;;;5091918;28;19942;-87
2023/07/25 12:55:08;;;;;;;;;;;;;;;;;;5091494;28;19927;-86
2023/07/25 12:57:34;;;;;;;;;;;;;;;;;;5091835;28;19924;-86
2023/07/25 13:00:00;;;;;;;;;;;;;;;;;;5092651;28;19924;-86
2023/07/25 13:02:28;;;;;;;;;;;;;;;;;;5090998;28;21119;-86
2023/07/25 13:04:54;;;;;;;;;;;;;;;;;;5092722;28;19963;-88
2023/07/25 13:07:19;;;;;;;;;;;;;;;;;;5091306;28;20022;-88
2023/07/25 13:09:45;;;;;;;;;;;;;;;;;;5091296;28;19920;-89
2023/07/25 13:12:11;;;;;;;;;;;;;;;;;;5091115;28;20018;-89
2023/07/25 13:14:37;;;;;;;;;;;;;;;;;;5092999;28;19959;-89
2023/07/25 13:17:03;;;;;;;;;;;;;;;;;;5108427;28;19927;-87
2023/07/25 13:19:29;;;;;;;;;;;;;;;;;;5092406;28;20260;-88
2023/07/25 13:21:55;;;;;;;;;;;;;;;;;;5091282;28;19972;-87
2023/07/25 13:24:21;;;;;;;;;;;;;;;;;;5092715;28;19920;-88
2023/07/25 13:26:47;;;;;;;;;;;;;;;;;;5092315;28;19927;-87
2023/07/25 13:29:13;;;;;;;;;;;;;;;;;;5091373;28;19928;-88
2023/07/25 13:31:40;;;;;;;;;;;;;;;;;;5091394;28;20002;-87
2023/07/25 13:34:06;;;;;;;;;;;;;;;;;;5090417;28;19920;-88
2023/07/25 13:36:32;;;;;;;;;;;;;;;;;;5092427;28;19920;-87
2023/07/25 13:38:58;;;;;;;;;;;;;;;;;;5090895;28;19928;-87
2023/07/25 13:41:24;;;;;;;;;;;;;;;;;;5092212;28;19920;-86
2023/07/25 13:43:50;;;;;;;;;;;;;;;;;;5092644;28;19920;-88
2023/07/25 13:46:16;;;;;;;;;;;;;;;;;;5108155;28;20328;-88
2023/07/25 13:48:42;;;;;;;;;;;;;;;;;;5092729;28;20015;-88
2023/07/25 13:51:07;;;;;;;;;;;;;;;;;;5091264;28;20046;-88
2023/07/25 13:53:35;;;;;;;;;;;;;;;;;;5090872;28;19974;-87
2023/07/25 13:56:00;;;;;;;;;;;;;;;;;;5090491;28;19970;-87
2023/07/25 13:58:26;;;;;;;;;;;;;;;;;;5090592;28;19974;-87
2023/07/25 14:00:52;;;;;;;;;;;;;;;;;;5090738;28;19976;-87
2023/07/25 14:03:18;;;;;;;;;;;;;;;;;;5090697;28;20419;-87
2023/07/25 14:05:44;;;;;;;;;;;;;;;;;;5091988;28;20022;-87
2023/07/25 14:08:10;;;;;;;;;;;;;;;;;;5092010;28;20014;-89
2023/07/25 14:10:36;;;;;;;;;;;;;;;;;;5092107;28;20015;-89
2023/07/25 14:13:02;;;;;;;;;;;;;;;;;;5092074;28;19974;-90
2023/07/25 14:15:30;;;;;;;;;;;;;;;;;;5090592;28;20338;-89
2023/07/25 14:17:56;;;;;;;;;;;;;;;;;;5090997;28;19927;-88
2023/07/25 14:20:22;;;;;;;;;;;;;;;;;;5090493;28;20372;-90
2023/07/25 14:22:48;;;;;;;;;;;;;;;;;;5090930;28;19920;-90
2023/07/25 14:25:14;;;;;;;;;;;;;;;;;;5090446;28;19920;-90
2023/07/25 14:27:40;;;;;;;;;;;;;;;;;;5090585;28;19928;-90
2023/07/25 14:30:06;;;;;;;;;;;;;;;;;;5090519;28;20351;-89
2023/07/25 14:32:32;;;;;;;;;;;;;;;;;;5092548;28;19920;-90
2023/07/25 14:34:58;;;;;;;;;;;;;;;;;;5093064;28;20238;-90
2023/07/25 14:37:24;;;;;;;;;;;;;;;;;;5110489;28;19920;-90
2023/07/25 14:39:50;;;;;;;;;;;;;;;;;;5093189;28;19931;-89
2023/07/25 14:42:16;;;;;;;;;;;;;;;;;;5093548;28;19920;-90
2023/07/25 14:44:42;;;;;;;;;;;;;;;;;;5110667;28;19924;-91
2023/07/25 14:47:08;;;;;;;;;;;;;;;;;;5097411;28;19970;-91
2023/07/25 14:49:34;;;;;;;;;;;;;;;;;;5116258;28;19920;-90
2023/07/25 14:52:00;;;;;;;;;;;;;;;;;;5115530;28;20271;-90
2023/07/25 14:54:25;;;;;;;;;;;;;;;;;;5114518;28;19925;-89
2023/07/25 14:56:51;;;;;;;;;;;;;;;;;;5113932;28;19999;-90
2023/07/25 14:59:18;;;;;;;;;;;;;;;;;;5114206;28;19924;-90
2023/07/25 15:01:43;;;;;;;;;;;;;;;;;;5114069;28;20010;-89
2023/07/25 15:04:09;;;;;;;;;;;;;;;;;;5113963;28;20406;-90
2023/07/25 15:06:35;;;;;;;;;;;;;;;;;;5114105;28;19970;-88
2023/07/25 15:09:01;;;;;;;;;;;;;;;;;;5113683;28;20363;-89
2023/07/25 15:11:27;;;;;;;;;;;;;;;;;;5097015;28;20302;-90
2023/07/25 15:13:53;;;;;;;;;;;;;;;;;;5115577;28;19920;-89
2023/07/25 15:16:19;;;;;;;;;;;;;;;;;;5113854;28;19919;-89
2023/07/25 15:18:45;;;;;;;;;;;;;;;;;;5113502;28;20290;-88
2023/07/25 15:21:11;;;;;;;;;;;;;;;;;;5114792;28;19930;-88
2023/07/25 15:23:37;;;;;;;;;;;;;;;;;;5113447;28;19923;-89
2023/07/25 15:26:03;;;;;;;;;;;;;;;;;;5113444;28;20262;-88
2023/07/25 15:28:29;;;;;;;;;;;;;;;;;;5115121;28;19975;-88
2023/07/25 15:30:55;;;;;;;;;;;;;;;;;;5114715;28;20363;-89
2023/07/25 15:33:21;;;;;;;;;;;;;;;;;;5113382;28;19926;-90
2023/07/25 15:35:47;;;;;;;;;;;;;;;;;;5096329;28;19919;-90
2023/07/25 15:38:14;;;;;;;;;;;;;;;;;;5096129;28;19930;-90
2023/07/25 15:40:40;;;;;;;;;;;;;;;;;;5113401;28;19924;-89
2023/07/25 15:43:06;;;;;;;;;;;;;;;;;;5113428;28;20242;-90
2023/07/25 15:45:34;;;;;;;;;;;;;;;;;;5096456;28;19973;-90
2023/07/25 15:48:00;;;;;;;;;;;;;;;;;;5112971;28;19919;-88
2023/07/25 15:50:26;;;;;;;;;;;;;;;;;;5112883;28;20351;-88
2023/07/25 15:52:52;;;;;;;;;;;;;;;;;;5096497;28;19968;-92
2023/07/25 15:55:18;;;;;;;;;;;;;;;;;;5095828;28;19924;-91
2023/07/25 15:57:44;;;;;;;;;;;;;;;;;;5113813;28;20281;-90
2023/07/25 16:00:10;;;;;;;;;;;;;;;;;;5096114;28;19923;-90
2023/07/25 16:02:36;;;;;;;;;;;;;;;;;;5095998;28;20003;-92
2023/07/25 16:05:02;;;;;;;;;;;;;;;;;;5112996;28;19920;-91
2023/07/25 16:07:28;;;;;;;;;;;;;;;;;;5095850;28;20367;-89
2023/07/25 16:09:54;;;;;;;;;;;;;;;;;;5114030;28;19926;-90
2023/07/25 16:12:20;;;;;;;;;;;;;;;;;;5113092;28;20364;-90
2023/07/25 16:14:46;;;;;;;;;;;;;;;;;;5114405;28;19927;-92
2023/07/25 16:17:12;;;;;;;;;;;;;;;;;;5095887;28;19964;-92
2023/07/25 16:19:38;;;;;;;;;;;;;;;;;;5112782;28;19967;-91
2023/07/25 16:22:04;;;;;;;;;;;;;;;;;;5095739;28;19955;-90
2023/07/25 16:24:29;;;;;;;;;;;;;;;;;;5095832;28;19923;-90
2023/07/25 16:26:55;;;;;;;;;;;;;;;;;;5112491;28;19959;-91
2023/07/25 16:29:21;;;;;;;;;;;;;;;;;;5095526;28;20401;-90
2023/07/25 16:31:47;;;;;;;;;;;;;;;;;;5111047;28;19928;-89
2023/07/25 16:34:14;;;;;;;;;;;;;;;;;;5095138;28;19920;-89
2023/07/25 16:36:40;;;;;;;;;;;;;;;;;;5111862;28;19947;-91